sensor_id;sensor_type;location;lat;lon;timestamp;P1;durP1;ratioP1;P2;durP2;ratioP2
16994;SDS011;8614;48.522;9.206;2023-03-14T03:02:45;8.47;;;8.00;;
16994;SDS011;8614;48.522;9.206;2023-03-14T03:05:14;8.37;;;7.87;;
16994;SDS011;8614;48.522;9.206;2023-03-14T03:07:41;8.37;;;7.77;;
16994;SDS011;8614;48.522;9.206;2023-03-14T03:10:08;8.40;;;7.90;;
16994;SDS011;8614;48.522;9.206;2023-03-14T03:12:36;8.77;;;8.30;;
16994;SDS011;8614;48.522;9.206;2023-03-14T03:15:04;8.27;;;7.87;;
16994;SDS011;8614;48.522;9.206;2023-03-14T03:17:34;8.00;;;7.50;;
16994;SDS011;8614;48.522;9.206;2023-03-14T03:20:09;7.37;;;6.97;;
16994;SDS011;8614;48.522;9.206;2023-03-14T03:22:44;8.50;;;7.90;;
16994;SDS011;8614;48.522;9.206;2023-03-14T03:25:18;7.80;;;7.40;;
16994;SDS011;8614;48.522;9.206;2023-03-14T03:27:45;8.20;;;7.70;;
16994;SDS011;8614;48.522;9.206;2023-03-14T03:30:16;8.00;;;7.50;;
16994;SDS011;8614;48.522;9.206;2023-03-14T03:32:44;8.10;;;7.60;;
16994;SDS011;8614;48.522;9.206;2023-03-14T03:35:13;7.93;;;7.53;;
16994;SDS011;8614;48.522;9.206;2023-03-14T03:37:40;7.60;;;7.20;;
16994;SDS011;8614;48.522;9.206;2023-03-14T03:40:08;8.10;;;7.60;;
16994;SDS011;8614;48.522;9.206;2023-03-14T03:42:37;8.50;;;8.00;;
16994;SDS011;8614;48.522;9.206;2023-03-14T03:45:11;8.53;;;8.10;;
16994;SDS011;8614;48.522;9.206;2023-03-14T03:47:51;8.67;;;8.07;;
16994;SDS011;8614;48.522;9.206;2023-03-14T03:50:26;8.67;;;8.27;;
16994;SDS011;8614;48.522;9.206;2023-03-14T03:52:52;9.00;;;8.50;;
16994;SDS011;8614;48.522;9.206;2023-03-14T03:55:19;8.87;;;8.27;;
16994;SDS011;8614;48.522;9.206;2023-03-14T03:57:46;9.23;;;8.53;;
16994;SDS011;8614;48.522;9.206;2023-03-14T04:00:13;9.07;;;8.57;;
16994;SDS011;8614;48.522;9.206;2023-03-14T04:02:40;9.00;;;8.50;;
16994;SDS011;8614;48.522;9.206;2023-03-14T04:05:10;9.00;;;8.43;;
16994;SDS011;8614;48.522;9.206;2023-03-14T04:07:43;9.60;;;8.90;;
16994;SDS011;8614;48.522;9.206;2023-03-14T04:10:14;8.80;;;8.30;;
16994;SDS011;8614;48.522;9.206;2023-03-14T04:12:47;9.60;;;9.00;;
16994;SDS011;8614;48.522;9.206;2023-03-14T04:15:18;10.53;;;9.53;;
16994;SDS011;8614;48.522;9.206;2023-03-14T04:17:49;8.67;;;8.10;;
16994;SDS011;8614;48.522;9.206;2023-03-14T04:20:16;9.10;;;8.53;;
16994;SDS011;8614;48.522;9.206;2023-03-14T04:22:44;10.80;;;10.00;;
16994;SDS011;8614;48.522;9.206;2023-03-14T04:25:11;2.97;;;2.10;;
16994;SDS011;8614;48.522;9.206;2023-03-14T04:27:45;2.87;;;2.10;;
16994;SDS011;8614;48.522;9.206;2023-03-14T04:30:21;3.87;;;2.63;;
16994;SDS011;8614;48.522;9.206;2023-03-14T04:32:54;4.13;;;3.73;;
16994;SDS011;8614;48.522;9.206;2023-03-14T04:35:23;3.90;;;3.70;;
16994;SDS011;8614;48.522;9.206;2023-03-14T04:37:56;4.33;;;3.40;;
16994;SDS011;8614;48.522;9.206;2023-03-14T04:40:23;3.90;;;3.53;;
16994;SDS011;8614;48.522;9.206;2023-03-14T04:42:54;3.60;;;3.30;;
16994;SDS011;8614;48.522;9.206;2023-03-14T04:45:21;3.20;;;3.10;;
16994;SDS011;8614;48.522;9.206;2023-03-14T04:47:48;2.87;;;2.63;;
16994;SDS011;8614;48.522;9.206;2023-03-14T04:50:18;4.13;;;2.93;;
16994;SDS011;8614;48.522;9.206;2023-03-14T04:52:46;5.17;;;3.10;;
16994;SDS011;8614;48.522;9.206;2023-03-14T04:55:14;3.13;;;2.90;;
16994;SDS011;8614;48.522;9.206;2023-03-14T04:57:41;3.00;;;2.73;;
16994;SDS011;8614;48.522;9.206;2023-03-14T05:00:09;3.00;;;2.67;;
16994;SDS011;8614;48.522;9.206;2023-03-14T05:02:52;2.93;;;2.73;;
16994;SDS011;8614;48.522;9.206;2023-03-14T05:05:41;3.30;;;3.00;;
16994;SDS011;8614;48.522;9.206;2023-03-14T05:08:26;3.30;;;3.00;;
16994;SDS011;8614;48.522;9.206;2023-03-14T05:11:12;3.40;;;2.60;;
16994;SDS011;8614;48.522;9.206;2023-03-14T05:13:51;2.60;;;2.40;;
16994;SDS011;8614;48.522;9.206;2023-03-14T05:16:47;2.90;;;2.70;;
16994;SDS011;8614;48.522;9.206;2023-03-14T05:19:14;3.53;;;3.20;;
16994;SDS011;8614;48.522;9.206;2023-03-14T05:22:10;5.33;;;2.90;;
16994;SDS011;8614;48.522;9.206;2023-03-14T05:24:56;3.53;;;3.23;;
16994;SDS011;8614;48.522;9.206;2023-03-14T05:27:48;3.63;;;3.43;;
16994;SDS011;8614;48.522;9.206;2023-03-14T05:30:37;2.93;;;2.80;;
16994;SDS011;8614;48.522;9.206;2023-03-14T05:33:23;5.47;;;3.30;;
16994;SDS011;8614;48.522;9.206;2023-03-14T05:36:08;5.80;;;3.40;;
16994;SDS011;8614;48.522;9.206;2023-03-14T05:38:55;3.13;;;2.93;;
16994;SDS011;8614;48.522;9.206;2023-03-14T05:41:49;4.03;;;3.40;;
16994;SDS011;8614;48.522;9.206;2023-03-14T05:44:44;3.90;;;3.50;;
16994;SDS011;8614;48.522;9.206;2023-03-14T05:47:34;3.33;;;3.13;;
16994;SDS011;8614;48.522;9.206;2023-03-14T05:50:15;3.50;;;3.30;;
16994;SDS011;8614;48.522;9.206;2023-03-14T05:53:05;3.90;;;3.57;;
16994;SDS011;8614;48.522;9.206;2023-03-14T05:55:41;4.03;;;3.60;;
16994;SDS011;8614;48.522;9.206;2023-03-14T05:58:08;3.50;;;3.20;;
16994;SDS011;8614;48.522;9.206;2023-03-14T06:00:56;3.00;;;2.80;;
16994;SDS011;8614;48.522;9.206;2023-03-14T06:03:38;2.80;;;2.60;;
16994;SDS011;8614;48.522;9.206;2023-03-14T06:06:05;3.10;;;2.90;;
16994;SDS011;8614;48.522;9.206;2023-03-14T06:08:32;2.93;;;2.67;;
16994;SDS011;8614;48.522;9.206;2023-03-14T06:11:02;3.53;;;2.60;;
16994;SDS011;8614;48.522;9.206;2023-03-14T06:13:30;2.60;;;2.50;;
16994;SDS011;8614;48.522;9.206;2023-03-14T06:15:58;4.03;;;2.63;;
16994;SDS011;8614;48.522;9.206;2023-03-14T06:18:25;3.77;;;2.77;;
16994;SDS011;8614;48.522;9.206;2023-03-14T06:20:53;2.97;;;2.70;;
16994;SDS011;8614;48.522;9.206;2023-03-14T06:23:24;2.87;;;2.67;;
16994;SDS011;8614;48.522;9.206;2023-03-14T06:25:52;2.80;;;2.60;;
16994;SDS011;8614;48.522;9.206;2023-03-14T06:28:22;3.77;;;2.70;;
16994;SDS011;8614;48.522;9.206;2023-03-14T06:30:49;2.40;;;2.20;;
16994;SDS011;8614;48.522;9.206;2023-03-14T06:33:17;3.77;;;2.40;;
16994;SDS011;8614;48.522;9.206;2023-03-14T06:35:44;2.60;;;2.40;;
16994;SDS011;8614;48.522;9.206;2023-03-14T06:38:11;2.80;;;2.60;;
16994;SDS011;8614;48.522;9.206;2023-03-14T06:40:39;2.50;;;2.40;;
16994;SDS011;8614;48.522;9.206;2023-03-14T06:43:25;2.70;;;2.50;;
16994;SDS011;8614;48.522;9.206;2023-03-14T06:45:53;3.00;;;2.80;;
16994;SDS011;8614;48.522;9.206;2023-03-14T06:48:21;2.70;;;2.60;;
16994;SDS011;8614;48.522;9.206;2023-03-14T06:50:51;2.70;;;2.50;;
16994;SDS011;8614;48.522;9.206;2023-03-14T06:53:20;3.33;;;2.37;;
16994;SDS011;8614;48.522;9.206;2023-03-14T06:55:47;2.33;;;2.10;;
16994;SDS011;8614;48.522;9.206;2023-03-14T06:58:16;2.50;;;2.30;;
16994;SDS011;8614;48.522;9.206;2023-03-14T07:00:44;3.30;;;2.42;;
16994;SDS011;8614;48.522;9.206;2023-03-14T07:03:15;4.50;;;4.10;;
16994;SDS011;8614;48.522;9.206;2023-03-14T07:05:48;4.25;;;3.95;;
16994;SDS011;8614;48.522;9.206;2023-03-14T07:08:15;3.80;;;3.50;;
16994;SDS011;8614;48.522;9.206;2023-03-14T07:10:42;3.53;;;3.33;;
16994;SDS011;8614;48.522;9.206;2023-03-14T07:13:09;3.80;;;3.60;;
16994;SDS011;8614;48.522;9.206;2023-03-14T07:15:47;4.10;;;3.80;;
16994;SDS011;8614;48.522;9.206;2023-03-14T07:18:13;3.67;;;3.37;;
16994;SDS011;8614;48.522;9.206;2023-03-14T07:20:40;3.50;;;3.30;;
16994;SDS011;8614;48.522;9.206;2023-03-14T07:23:09;3.67;;;3.37;;
16994;SDS011;8614;48.522;9.206;2023-03-14T07:25:41;2.80;;;2.60;;
16994;SDS011;8614;48.522;9.206;2023-03-14T07:28:08;8.80;;;8.30;;
16994;SDS011;8614;48.522;9.206;2023-03-14T07:30:38;9.00;;;8.50;;
16994;SDS011;8614;48.522;9.206;2023-03-14T07:33:11;9.43;;;8.83;;
16994;SDS011;8614;48.522;9.206;2023-03-14T07:35:38;9.40;;;8.80;;
16994;SDS011;8614;48.522;9.206;2023-03-14T07:38:05;9.23;;;8.63;;
16994;SDS011;8614;48.522;9.206;2023-03-14T07:40:38;4.63;;;2.27;;
16994;SDS011;8614;48.522;9.206;2023-03-14T07:43:05;2.60;;;2.40;;
16994;SDS011;8614;48.522;9.206;2023-03-14T07:45:40;2.67;;;2.47;;
16994;SDS011;8614;48.522;9.206;2023-03-14T07:48:07;2.30;;;2.20;;
16994;SDS011;8614;48.522;9.206;2023-03-14T07:50:34;2.00;;;1.90;;
16994;SDS011;8614;48.522;9.206;2023-03-14T07:53:01;2.23;;;2.03;;
16994;SDS011;8614;48.522;9.206;2023-03-14T07:55:28;2.07;;;1.97;;
16994;SDS011;8614;48.522;9.206;2023-03-14T07:57:56;2.03;;;1.90;;
16994;SDS011;8614;48.522;9.206;2023-03-14T08:00:23;2.73;;;2.00;;
16994;SDS011;8614;48.522;9.206;2023-03-14T08:02:50;1.80;;;1.70;;
16994;SDS011;8614;48.522;9.206;2023-03-14T08:05:17;2.13;;;2.03;;
16994;SDS011;8614;48.522;9.206;2023-03-14T08:07:44;2.10;;;2.00;;
16994;SDS011;8614;48.522;9.206;2023-03-14T08:10:10;2.87;;;2.03;;
16994;SDS011;8614;48.522;9.206;2023-03-14T08:12:40;1.93;;;1.83;;
16994;SDS011;8614;48.522;9.206;2023-03-14T08:15:09;2.80;;;2.20;;
16994;SDS011;8614;48.522;9.206;2023-03-14T08:17:36;1.93;;;1.80;;
16994;SDS011;8614;48.522;9.206;2023-03-14T08:20:03;2.00;;;1.90;;
16994;SDS011;8614;48.522;9.206;2023-03-14T08:22:33;2.10;;;2.00;;
16994;SDS011;8614;48.522;9.206;2023-03-14T08:25:00;2.00;;;1.90;;
16994;SDS011;8614;48.522;9.206;2023-03-14T08:27:27;1.83;;;1.80;;
16994;SDS011;8614;48.522;9.206;2023-03-14T08:29:54;3.77;;;2.00;;
16994;SDS011;8614;48.522;9.206;2023-03-14T08:32:22;2.10;;;1.90;;
16994;SDS011;8614;48.522;9.206;2023-03-14T08:34:49;2.87;;;2.00;;
16994;SDS011;8614;48.522;9.206;2023-03-14T08:37:16;2.47;;;2.23;;
16994;SDS011;8614;48.522;9.206;2023-03-14T08:39:44;1.70;;;1.70;;
16994;SDS011;8614;48.522;9.206;2023-03-14T08:42:10;2.43;;;2.33;;
16994;SDS011;8614;48.522;9.206;2023-03-14T08:44:37;2.10;;;1.90;;
16994;SDS011;8614;48.522;9.206;2023-03-14T08:47:04;1.90;;;1.80;;
16994;SDS011;8614;48.522;9.206;2023-03-14T08:49:32;1.83;;;1.73;;
16994;SDS011;8614;48.522;9.206;2023-03-14T08:52:00;2.30;;;1.80;;
16994;SDS011;8614;48.522;9.206;2023-03-14T08:54:28;1.67;;;1.67;;
16994;SDS011;8614;48.522;9.206;2023-03-14T08:56:55;1.97;;;1.87;;
16994;SDS011;8614;48.522;9.206;2023-03-14T08:59:22;2.30;;;2.10;;
16994;SDS011;8614;48.522;9.206;2023-03-14T09:01:49;1.90;;;1.80;;
16994;SDS011;8614;48.522;9.206;2023-03-14T09:04:16;2.00;;;1.90;;
16994;SDS011;8614;48.522;9.206;2023-03-14T09:06:44;2.17;;;1.97;;
16994;SDS011;8614;48.522;9.206;2023-03-14T09:09:11;1.77;;;1.70;;
16994;SDS011;8614;48.522;9.206;2023-03-14T09:11:38;2.00;;;1.90;;
16994;SDS011;8614;48.522;9.206;2023-03-14T09:14:05;2.17;;;2.07;;
16994;SDS011;8614;48.522;9.206;2023-03-14T09:16:32;4.30;;;2.40;;
16994;SDS011;8614;48.522;9.206;2023-03-14T09:19:00;1.90;;;1.80;;
16994;SDS011;8614;48.522;9.206;2023-03-14T09:21:26;1.97;;;1.77;;
16994;SDS011;8614;48.522;9.206;2023-03-14T09:23:55;1.70;;;1.70;;
16994;SDS011;8614;48.522;9.206;2023-03-14T09:26:21;1.63;;;1.60;;
16994;SDS011;8614;48.522;9.206;2023-03-14T09:28:48;1.90;;;1.77;;
16994;SDS011;8614;48.522;9.206;2023-03-14T09:31:15;3.67;;;1.80;;
16994;SDS011;8614;48.522;9.206;2023-03-14T09:33:42;1.73;;;1.63;;
16994;SDS011;8614;48.522;9.206;2023-03-14T09:36:09;1.87;;;1.77;;
16994;SDS011;8614;48.522;9.206;2023-03-14T09:38:37;3.10;;;3.00;;
16994;SDS011;8614;48.522;9.206;2023-03-14T09:41:09;1.90;;;1.80;;
16994;SDS011;8614;48.522;9.206;2023-03-14T09:43:40;3.30;;;3.10;;
16994;SDS011;8614;48.522;9.206;2023-03-14T09:46:09;2.80;;;2.70;;
16994;SDS011;8614;48.522;9.206;2023-03-14T09:48:37;2.80;;;2.60;;
16994;SDS011;8614;48.522;9.206;2023-03-14T09:51:07;3.13;;;2.60;;
16994;SDS011;8614;48.522;9.206;2023-03-14T09:53:40;3.07;;;2.87;;
16994;SDS011;8614;48.522;9.206;2023-03-14T09:56:12;6.33;;;5.93;;
16994;SDS011;8614;48.522;9.206;2023-03-14T09:58:42;6.93;;;6.53;;
16994;SDS011;8614;48.522;9.206;2023-03-14T10:01:13;5.77;;;5.33;;
16994;SDS011;8614;48.522;9.206;2023-03-14T10:03:44;1.90;;;1.80;;
16994;SDS011;8614;48.522;9.206;2023-03-14T10:06:13;5.37;;;5.07;;
16994;SDS011;8614;48.522;9.206;2023-03-14T10:08:41;5.90;;;5.60;;
16994;SDS011;8614;48.522;9.206;2023-03-14T10:11:13;7.23;;;6.63;;
16994;SDS011;8614;48.522;9.206;2023-03-14T10:13:49;6.23;;;5.93;;
16994;SDS011;8614;48.522;9.206;2023-03-14T10:16:28;6.30;;;6.00;;
16994;SDS011;8614;48.522;9.206;2023-03-14T10:18:59;6.37;;;5.90;;
16994;SDS011;8614;48.522;9.206;2023-03-14T10:21:28;6.27;;;5.87;;
16994;SDS011;8614;48.522;9.206;2023-03-14T10:24:07;6.00;;;5.70;;
16994;SDS011;8614;48.522;9.206;2023-03-14T10:26:36;6.60;;;6.20;;
16994;SDS011;8614;48.522;9.206;2023-03-14T10:29:04;6.50;;;6.10;;
16994;SDS011;8614;48.522;9.206;2023-03-14T10:31:45;6.30;;;5.90;;
16994;SDS011;8614;48.522;9.206;2023-03-14T10:34:15;6.20;;;5.90;;
16994;SDS011;8614;48.522;9.206;2023-03-14T10:36:43;6.27;;;5.70;;
16994;SDS011;8614;48.522;9.206;2023-03-14T10:39:22;5.67;;;5.30;;
16994;SDS011;8614;48.522;9.206;2023-03-14T10:41:54;6.70;;;6.30;;
16994;SDS011;8614;48.522;9.206;2023-03-14T10:44:27;6.97;;;6.57;;
16994;SDS011;8614;48.522;9.206;2023-03-14T10:46:56;7.10;;;6.70;;
16994;SDS011;8614;48.522;9.206;2023-03-14T10:49:26;6.17;;;5.87;;
16994;SDS011;8614;48.522;9.206;2023-03-14T10:51:55;7.60;;;7.20;;
16994;SDS011;8614;48.522;9.206;2023-03-14T10:54:23;7.60;;;7.20;;
16994;SDS011;8614;48.522;9.206;2023-03-14T10:56:58;8.03;;;7.63;;
16994;SDS011;8614;48.522;9.206;2023-03-14T10:59:26;7.70;;;7.30;;
16994;SDS011;8614;48.522;9.206;2023-03-14T11:02:01;7.83;;;7.40;;
16994;SDS011;8614;48.522;9.206;2023-03-14T11:04:40;7.50;;;7.10;;
16994;SDS011;8614;48.522;9.206;2023-03-14T11:07:22;7.00;;;6.60;;
16994;SDS011;8614;48.522;9.206;2023-03-14T11:09:54;7.17;;;6.77;;
16994;SDS011;8614;48.522;9.206;2023-03-14T11:12:32;8.63;;;8.13;;
16994;SDS011;8614;48.522;9.206;2023-03-14T11:15:10;8.87;;;8.37;;
16994;SDS011;8614;48.522;9.206;2023-03-14T11:17:46;8.00;;;7.50;;
16994;SDS011;8614;48.522;9.206;2023-03-14T11:20:25;7.93;;;7.47;;
16994;SDS011;8614;48.522;9.206;2023-03-14T11:23:02;8.87;;;8.37;;
16994;SDS011;8614;48.522;9.206;2023-03-14T11:25:36;7.00;;;6.67;;
16994;SDS011;8614;48.522;9.206;2023-03-14T11:28:15;7.70;;;7.30;;
16994;SDS011;8614;48.522;9.206;2023-03-14T11:30:47;7.70;;;7.30;;
16994;SDS011;8614;48.522;9.206;2023-03-14T11:33:18;8.00;;;7.60;;
16994;SDS011;8614;48.522;9.206;2023-03-14T11:35:52;7.73;;;7.33;;
16994;SDS011;8614;48.522;9.206;2023-03-14T11:38:27;7.83;;;7.40;;
16994;SDS011;8614;48.522;9.206;2023-03-14T11:40:57;7.80;;;7.40;;
16994;SDS011;8614;48.522;9.206;2023-03-14T11:43:27;7.70;;;7.30;;
16994;SDS011;8614;48.522;9.206;2023-03-14T11:45:57;8.17;;;7.67;;
16994;SDS011;8614;48.522;9.206;2023-03-14T11:48:31;8.60;;;8.00;;
16994;SDS011;8614;48.522;9.206;2023-03-14T11:51:07;8.53;;;8.03;;
16994;SDS011;8614;48.522;9.206;2023-03-14T11:53:43;8.50;;;8.00;;
16994;SDS011;8614;48.522;9.206;2023-03-14T11:56:16;9.87;;;9.17;;
16994;SDS011;8614;48.522;9.206;2023-03-14T11:58:51;8.10;;;7.60;;
16994;SDS011;8614;48.522;9.206;2023-03-14T12:01:25;8.80;;;8.20;;
16994;SDS011;8614;48.522;9.206;2023-03-14T12:04:09;8.77;;;8.27;;
16994;SDS011;8614;48.522;9.206;2023-03-14T12:06:40;8.70;;;8.10;;
16994;SDS011;8614;48.522;9.206;2023-03-14T12:09:12;8.50;;;8.10;;
16994;SDS011;8614;48.522;9.206;2023-03-14T12:11:42;8.70;;;8.30;;
16994;SDS011;8614;48.522;9.206;2023-03-14T12:14:22;8.30;;;7.90;;
16994;SDS011;8614;48.522;9.206;2023-03-14T12:16:55;7.60;;;7.20;;
16994;SDS011;8614;48.522;9.206;2023-03-14T12:19:33;7.53;;;7.13;;
16994;SDS011;8614;48.522;9.206;2023-03-14T12:22:08;8.10;;;7.60;;
16994;SDS011;8614;48.522;9.206;2023-03-14T12:24:44;8.23;;;7.73;;
16994;SDS011;8614;48.522;9.206;2023-03-14T12:36:01;8.60;;;8.00;;
16994;SDS011;8614;48.522;9.206;2023-03-14T12:38:32;8.20;;;7.80;;
16994;SDS011;8614;48.522;9.206;2023-03-14T12:41:12;8.57;;;8.07;;
16994;SDS011;8614;48.522;9.206;2023-03-14T12:43:41;8.60;;;8.20;;
16994;SDS011;8614;48.522;9.206;2023-03-14T12:46:18;8.90;;;8.50;;
16994;SDS011;8614;48.522;9.206;2023-03-14T12:48:48;9.03;;;8.53;;
16994;SDS011;8614;48.522;9.206;2023-03-14T12:51:16;8.67;;;8.10;;
16994;SDS011;8614;48.522;9.206;2023-03-14T12:56:43;8.93;;;8.43;;
16994;SDS011;8614;48.522;9.206;2023-03-14T12:59:21;8.43;;;8.00;;
16994;SDS011;8614;48.522;9.206;2023-03-14T13:02:00;8.77;;;8.27;;
16994;SDS011;8614;48.522;9.206;2023-03-14T13:04:30;8.10;;;7.70;;
16994;SDS011;8614;48.522;9.206;2023-03-14T13:06:59;8.20;;;7.70;;
16994;SDS011;8614;48.522;9.206;2023-03-14T13:09:49;7.60;;;7.20;;
16994;SDS011;8614;48.522;9.206;2023-03-14T13:12:22;8.10;;;7.70;;
16994;SDS011;8614;48.522;9.206;2023-03-14T13:14:57;8.50;;;7.90;;
16994;SDS011;8614;48.522;9.206;2023-03-14T13:17:27;8.10;;;7.70;;
16994;SDS011;8614;48.522;9.206;2023-03-14T13:19:57;8.10;;;7.50;;
16994;SDS011;8614;48.522;9.206;2023-03-14T13:22:30;7.90;;;7.40;;
16994;SDS011;8614;48.522;9.206;2023-03-14T13:25:01;8.40;;;7.90;;
16994;SDS011;8614;48.522;9.206;2023-03-14T13:27:30;7.93;;;7.43;;
16994;SDS011;8614;48.522;9.206;2023-03-14T13:30:04;7.90;;;7.50;;
16994;SDS011;8614;48.522;9.206;2023-03-14T13:32:42;8.23;;;7.73;;
16994;SDS011;8614;48.522;9.206;2023-03-14T13:35:14;7.97;;;7.40;;
16994;SDS011;8614;48.522;9.206;2023-03-14T13:37:42;8.30;;;7.70;;
16994;SDS011;8614;48.522;9.206;2023-03-14T13:40:18;8.20;;;7.70;;
16994;SDS011;8614;48.522;9.206;2023-03-14T13:42:47;8.00;;;7.50;;
16994;SDS011;8614;48.522;9.206;2023-03-14T13:45:14;7.80;;;7.40;;
16994;SDS011;8614;48.522;9.206;2023-03-14T13:47:42;8.20;;;7.60;;
16994;SDS011;8614;48.522;9.206;2023-03-14T13:50:14;8.07;;;7.57;;
16994;SDS011;8614;48.522;9.206;2023-03-14T13:52:42;7.90;;;7.40;;
16994;SDS011;8614;48.522;9.206;2023-03-14T13:55:14;8.30;;;7.70;;
16994;SDS011;8614;48.522;9.206;2023-03-14T13:57:42;8.20;;;7.60;;
16994;SDS011;8614;48.522;9.206;2023-03-14T14:00:17;7.90;;;7.40;;
16994;SDS011;8614;48.522;9.206;2023-03-14T14:02:48;8.37;;;7.67;;
16994;SDS011;8614;48.522;9.206;2023-03-14T14:05:15;7.97;;;7.50;;
16994;SDS011;8614;48.522;9.206;2023-03-14T14:07:42;8.57;;;7.87;;
16994;SDS011;8614;48.522;9.206;2023-03-14T14:10:10;9.10;;;8.50;;
16994;SDS011;8614;48.522;9.206;2023-03-14T14:12:39;8.70;;;8.20;;
16994;SDS011;8614;48.522;9.206;2023-03-14T14:15:10;9.23;;;8.53;;
16994;SDS011;8614;48.522;9.206;2023-03-14T14:17:39;9.23;;;8.53;;
16994;SDS011;8614;48.522;9.206;2023-03-14T14:20:13;8.80;;;8.20;;
16994;SDS011;8614;48.522;9.206;2023-03-14T14:22:46;8.80;;;8.30;;
16994;SDS011;8614;48.522;9.206;2023-03-14T14:25:13;8.47;;;7.97;;
16994;SDS011;8614;48.522;9.206;2023-03-14T14:27:42;9.00;;;8.40;;
16994;SDS011;8614;48.522;9.206;2023-03-14T14:30:24;8.80;;;8.20;;
16994;SDS011;8614;48.522;9.206;2023-03-14T14:33:10;9.10;;;8.50;;
16994;SDS011;8614;48.522;9.206;2023-03-14T14:35:40;8.43;;;7.93;;
16994;SDS011;8614;48.522;9.206;2023-03-14T14:38:10;9.30;;;8.70;;
16994;SDS011;8614;48.522;9.206;2023-03-14T14:40:45;9.07;;;8.57;;
16994;SDS011;8614;48.522;9.206;2023-03-14T14:43:15;9.20;;;8.20;;
16994;SDS011;8614;48.522;9.206;2023-03-14T14:45:45;8.57;;;8.07;;
16994;SDS011;8614;48.522;9.206;2023-03-14T14:48:15;8.43;;;7.73;;
16994;SDS011;8614;48.522;9.206;2023-03-14T14:50:54;8.20;;;7.70;;
16994;SDS011;8614;48.522;9.206;2023-03-14T14:53:24;8.40;;;7.70;;
16994;SDS011;8614;48.522;9.206;2023-03-14T14:55:55;8.17;;;7.57;;
16994;SDS011;8614;48.522;9.206;2023-03-14T14:58:24;8.30;;;7.80;;
16994;SDS011;8614;48.522;9.206;2023-03-14T15:00:53;8.23;;;7.63;;
16994;SDS011;8614;48.522;9.206;2023-03-14T15:03:22;8.87;;;7.93;;
16994;SDS011;8614;48.522;9.206;2023-03-14T15:05:55;8.13;;;7.60;;
16994;SDS011;8614;48.522;9.206;2023-03-14T15:08:23;8.57;;;7.97;;
16994;SDS011;8614;48.522;9.206;2023-03-14T15:10:51;8.30;;;7.70;;
16994;SDS011;8614;48.522;9.206;2023-03-14T15:13:18;8.37;;;7.77;;
16994;SDS011;8614;48.522;9.206;2023-03-14T15:15:45;7.93;;;7.43;;
16994;SDS011;8614;48.522;9.206;2023-03-14T15:18:13;7.83;;;7.23;;
16994;SDS011;8614;48.522;9.206;2023-03-14T15:20:42;8.03;;;7.43;;
16994;SDS011;8614;48.522;9.206;2023-03-14T15:23:11;7.83;;;7.43;;
16994;SDS011;8614;48.522;9.206;2023-03-14T15:25:38;8.83;;;8.17;;
16994;SDS011;8614;48.522;9.206;2023-03-14T15:28:10;8.60;;;7.80;;
16994;SDS011;8614;48.522;9.206;2023-03-14T15:30:40;8.23;;;7.63;;
16994;SDS011;8614;48.522;9.206;2023-03-14T15:33:07;8.50;;;7.93;;
16994;SDS011;8614;48.522;9.206;2023-03-14T15:35:34;8.63;;;8.00;;
16994;SDS011;8614;48.522;9.206;2023-03-14T15:38:02;8.30;;;7.80;;
16994;SDS011;8614;48.522;9.206;2023-03-14T15:40:30;7.90;;;7.40;;
16994;SDS011;8614;48.522;9.206;2023-03-14T15:42:57;8.00;;;7.50;;
16994;SDS011;8614;48.522;9.206;2023-03-14T15:45:24;7.90;;;7.40;;
16994;SDS011;8614;48.522;9.206;2023-03-14T15:47:51;7.97;;;7.47;;
16994;SDS011;8614;48.522;9.206;2023-03-14T15:50:18;7.77;;;7.20;;
16994;SDS011;8614;48.522;9.206;2023-03-14T15:52:44;8.00;;;7.40;;
16994;SDS011;8614;48.522;9.206;2023-03-14T15:55:11;7.50;;;7.00;;
16994;SDS011;8614;48.522;9.206;2023-03-14T15:57:41;7.50;;;6.97;;
16994;SDS011;8614;48.522;9.206;2023-03-14T16:00:10;7.37;;;6.97;;
16994;SDS011;8614;48.522;9.206;2023-03-14T16:02:40;7.60;;;7.10;;
16994;SDS011;8614;48.522;9.206;2023-03-14T16:05:08;7.60;;;7.10;;
16994;SDS011;8614;48.522;9.206;2023-03-14T16:07:36;7.60;;;7.10;;
16994;SDS011;8614;48.522;9.206;2023-03-14T16:10:03;8.47;;;7.83;;
16994;SDS011;8614;48.522;9.206;2023-03-14T16:12:31;7.63;;;6.97;;
16994;SDS011;8614;48.522;9.206;2023-03-14T16:15:00;7.13;;;6.73;;
16994;SDS011;8614;48.522;9.206;2023-03-14T16:17:27;7.83;;;7.23;;
16994;SDS011;8614;48.522;9.206;2023-03-14T16:19:53;7.27;;;6.77;;
16994;SDS011;8614;48.522;9.206;2023-03-14T16:22:20;7.20;;;6.60;;
16994;SDS011;8614;48.522;9.206;2023-03-14T16:24:47;7.23;;;6.73;;
16994;SDS011;8614;48.522;9.206;2023-03-14T16:27:14;7.23;;;6.73;;
16994;SDS011;8614;48.522;9.206;2023-03-14T16:29:41;7.20;;;6.70;;
16994;SDS011;8614;48.522;9.206;2023-03-14T16:32:10;7.13;;;6.73;;
16994;SDS011;8614;48.522;9.206;2023-03-14T16:34:37;8.30;;;7.70;;
16994;SDS011;8614;48.522;9.206;2023-03-14T16:37:04;7.33;;;6.83;;
16994;SDS011;8614;48.522;9.206;2023-03-14T16:39:31;7.10;;;6.70;;
16994;SDS011;8614;48.522;9.206;2023-03-14T16:41:58;7.70;;;7.10;;
16994;SDS011;8614;48.522;9.206;2023-03-14T16:44:24;7.83;;;7.13;;
16994;SDS011;8614;48.522;9.206;2023-03-14T16:46:51;8.10;;;7.50;;
16994;SDS011;8614;48.522;9.206;2023-03-14T16:49:19;9.27;;;8.57;;
16994;SDS011;8614;48.522;9.206;2023-03-14T16:51:46;7.97;;;7.47;;
16994;SDS011;8614;48.522;9.206;2023-03-14T16:54:13;7.90;;;7.40;;
16994;SDS011;8614;48.522;9.206;2023-03-14T16:56:40;7.60;;;7.00;;
16994;SDS011;8614;48.522;9.206;2023-03-14T16:59:06;7.93;;;7.43;;
16994;SDS011;8614;48.522;9.206;2023-03-14T17:01:33;7.90;;;7.50;;
16994;SDS011;8614;48.522;9.206;2023-03-14T17:04:02;7.70;;;7.30;;
16994;SDS011;8614;48.522;9.206;2023-03-14T17:06:30;8.17;;;7.60;;
16994;SDS011;8614;48.522;9.206;2023-03-14T17:08:57;8.43;;;7.93;;
16994;SDS011;8614;48.522;9.206;2023-03-14T17:11:24;8.30;;;7.70;;
16994;SDS011;8614;48.522;9.206;2023-03-14T17:13:51;8.43;;;7.90;;
16994;SDS011;8614;48.522;9.206;2023-03-14T17:16:18;8.20;;;7.40;;
16994;SDS011;8614;48.522;9.206;2023-03-14T17:18:45;9.00;;;8.10;;
16994;SDS011;8614;48.522;9.206;2023-03-14T17:21:12;8.37;;;7.73;;
16994;SDS011;8614;48.522;9.206;2023-03-14T17:23:40;8.67;;;8.00;;
16994;SDS011;8614;48.522;9.206;2023-03-14T17:26:07;8.23;;;7.60;;
16994;SDS011;8614;48.522;9.206;2023-03-14T17:28:36;9.33;;;8.43;;
16994;SDS011;8614;48.522;9.206;2023-03-14T17:31:04;8.37;;;7.77;;
16994;SDS011;8614;48.522;9.206;2023-03-14T17:33:32;8.17;;;7.60;;
16994;SDS011;8614;48.522;9.206;2023-03-14T17:35:59;8.40;;;7.70;;
16994;SDS011;8614;48.522;9.206;2023-03-14T17:38:26;8.60;;;7.90;;
16994;SDS011;8614;48.522;9.206;2023-03-14T17:40:54;8.60;;;7.90;;
16994;SDS011;8614;48.522;9.206;2023-03-14T17:43:21;8.43;;;7.60;;
16994;SDS011;8614;48.522;9.206;2023-03-14T17:45:55;8.00;;;7.40;;
16994;SDS011;8614;48.522;9.206;2023-03-14T17:48:22;9.03;;;8.43;;
16994;SDS011;8614;48.522;9.206;2023-03-14T17:50:49;9.50;;;8.60;;
16994;SDS011;8614;48.522;9.206;2023-03-14T17:53:16;9.17;;;8.47;;
16994;SDS011;8614;48.522;9.206;2023-03-14T17:55:42;8.53;;;7.93;;
16994;SDS011;8614;48.522;9.206;2023-03-14T17:58:11;8.87;;;8.07;;
16994;SDS011;8614;48.522;9.206;2023-03-14T18:00:37;8.80;;;8.10;;
16994;SDS011;8614;48.522;9.206;2023-03-14T18:03:04;8.60;;;8.10;;
16994;SDS011;8614;48.522;9.206;2023-03-14T18:05:31;9.30;;;8.57;;
16994;SDS011;8614;48.522;9.206;2023-03-14T18:07:58;9.63;;;8.80;;
16994;SDS011;8614;48.522;9.206;2023-03-14T18:10:25;9.63;;;8.93;;
16994;SDS011;8614;48.522;9.206;2023-03-14T18:12:51;9.80;;;8.93;;
16994;SDS011;8614;48.522;9.206;2023-03-14T18:15:19;10.33;;;9.53;;
16994;SDS011;8614;48.522;9.206;2023-03-14T18:17:46;10.13;;;9.20;;
16994;SDS011;8614;48.522;9.206;2023-03-14T18:20:13;10.23;;;9.37;;
16994;SDS011;8614;48.522;9.206;2023-03-14T18:22:40;10.27;;;9.47;;
16994;SDS011;8614;48.522;9.206;2023-03-14T18:25:08;10.03;;;9.13;;
16994;SDS011;8614;48.522;9.206;2023-03-14T18:27:36;9.40;;;8.80;;
16994;SDS011;8614;48.522;9.206;2023-03-14T18:30:03;9.77;;;9.07;;
16994;SDS011;8614;48.522;9.206;2023-03-14T18:32:31;9.83;;;9.03;;
16994;SDS011;8614;48.522;9.206;2023-03-14T18:34:58;8.93;;;8.33;;